ADDS METAR Data INFO
IDs: Format: Raw Decoded Include TAF

Data at: 2344 UTC 24 Feb 2018

KRIW 242253Z AUTO 28011KT 10SM CLR M02/M16 A2971 RMK AO2 SLP113 T10221156
KRIW 242153Z AUTO 30014KT 10SM CLR M02/M16 A2971 RMK AO2 SLP118 T10221156
KRIW 242053Z AUTO 30019G26KT 10SM FEW120 M03/M16 A2971 RMK AO2 PK WND 30028/1955 SLP120 T10281156 56018
KRIW 241953Z AUTO 30020G30KT 10SM CLR M02/M16 A2972 RMK AO2 PK WND 31030/1946 SLP124 T10221156
KRIW 241853Z AUTO 30020G27KT 10SM CLR M03/M16 A2975 RMK AO2 PK WND 30027/1852 SLP134 T10331156
KRIW 241753Z AUTO 30020G26KT 10SM CLR M06/M17 A2977 RMK AO2 PK WND 29027/1731 SLP151 T10561167 11044 21106 58002
KRIW 241653Z AUTO 25016KT 10SM CLR M07/M17 A2979 RMK AO2 PK WND 28029/1558 SLP159 T10671172
KRIW 241553Z AUTO 28022G29KT 10SM FEW100 M08/M18 A2979 RMK AO2 PK WND 29030/1504 SLP155 T10781178
KRIW 241453Z AUTO 30025G33KT 10SM OVC100 M08/M19 A2978 RMK AO2 PK WND 30034/1443 SLP153 T10781189 53004
KRIW 241353Z AUTO 31023G29KT 10SM BKN090 OVC110 M08/M18 A2976 RMK AO2 PK WND 30040/1316 SLP140 T10831183
KRIW 241253Z AUTO 30024G33KT 10SM BKN090 M08/M18 A2975 RMK AO2 PK WND 30033/1250 SLP133 T10831183
KRIW 241153Z AUTO 30017KT 10SM CLR M11/M19 A2976 RMK AO2 SLP143 T11061194 11106 21172 56017
KRIW 241053Z AUTO 27013KT 10SM CLR M14/M22 A2977 RMK AO2 SLP152 T11391217
KRIW 240953Z AUTO 27014KT 10SM CLR M15/M21 A2979 RMK AO2 SLP161 T11501206
KRIW 240853Z AUTO 24009KT 10SM CLR M17/M20 A2982 RMK AO2 SLP180 T11671200 58017
KRIW 240753Z AUTO 23008KT 10SM CLR M17/M20 A2984 RMK AO2 SLP191 T11671200
KRIW 240653Z AUTO 22005KT 10SM CLR M16/M20 A2986 RMK AO2 SLP200 T11611200 410831200
KRIW 240553Z AUTO 30005KT 10SM CLR M17/M21 A2988 RMK AO2 SLP209 T11721206 11094 21178 58009
KRIW 240453Z AUTO 31006KT 10SM CLR M17/M19 A2990 RMK AO2 SLP220 T11671194
KRIW 240353Z AUTO 00000KT 10SM CLR M14/M19 A2991 RMK AO2 SLP216 T11391194
KRIW 240253Z AUTO 00000KT 10SM CLR M15/M19 A2991 RMK AO2 SLP224 T11501189 58001
KRIW 240153Z AUTO 00000KT 10SM CLR M12/M17 A2992 RMK AO2 SLP223 T11171172
KRIW 240053Z AUTO 08003KT 10SM CLR M10/M16 A2992 RMK AO2 SLP218 T11001161
KRIW 232353Z AUTO 00000KT 10SM CLR M09/M17 A2992 RMK AO2 SLP217 T10941167 11083 21139 56008
KRIW 232253Z AUTO 10003KT 10SM CLR M09/M17 A2992 RMK AO2 SLP218 T10941167
KRIW 232153Z AUTO 00000KT 10SM CLR M09/M17 A2993 RMK AO2 SLP221 T10891167
KRIW 232053Z AUTO 00000KT 10SM CLR M10/M17 A2994 RMK AO2 SLP224 T11001167 58017
KRIW 231953Z AUTO 10003KT 10SM CLR M11/M17 A2996 RMK AO2 SLP230 T11111167
KRIW 231853Z AUTO 11004KT 10SM CLR M13/M18 A2999 RMK AO2 SLP252 T11331183
KRIW 231753Z AUTO 00000KT 10SM CLR M13/M17 A3000 RMK AO2 SLP253 T11281172 11122 21200 58003
KRIW 231653Z AUTO 00000KT 10SM CLR M14/M18 A3002 RMK AO2 SLP256 T11441178
KRIW 231553Z AUTO 00000KT 10SM FEW095 M14/M18 A3002 RMK AO2 SLP256 T11441183
KRIW 231453Z AUTO 35004KT 10SM CLR M17/M21 A3001 RMK AO2 SLP260 T11671206 50002
KRIW 231353Z AUTO 00000KT 10SM CLR M19/M22 A3002 RMK AO2 SLP266 T11891222
KRIW 231253Z AUTO 25004KT 10SM CLR M18/M21 A3000 RMK AO2 SLP256 T11781211
KRIW 231153Z AUTO 25006KT 10SM CLR M18/M22 A3001 RMK AO2 SLP254 T11831217 11150 21194 53001